createdAt,value
2022-11-16T12:26:07.757Z,16.83
2022-11-16T12:27:07.732Z,17.34
2022-11-16T12:28:07.687Z,17.63
2022-11-16T12:29:07.666Z,17.95
2022-11-16T12:30:07.662Z,18.29
2022-11-16T12:31:07.626Z,18.39
2022-11-16T12:32:33.487Z,18.55
2022-11-16T12:33:33.741Z,18.94
2022-11-16T12:34:33.433Z,18.88
2022-11-16T12:35:33.423Z,19.21
2022-11-16T12:36:33.393Z,19.32
2022-11-16T12:37:33.391Z,19.19
2022-11-16T12:38:33.368Z,19.63
2022-11-16T12:39:33.352Z,19.95
2022-11-16T12:40:33.317Z,20.16
2022-11-16T12:41:33.377Z,20.06
2022-11-16T12:42:33.295Z,20.36
2022-11-16T12:43:33.639Z,20.54
2022-11-16T12:44:33.257Z,20.92
2022-11-16T12:45:33.237Z,20.69
2022-11-16T12:46:41.162Z,20.51
2022-11-16T12:49:58.393Z,18.90
2022-11-16T12:50:58.358Z,19.41
2022-11-16T12:51:58.334Z,19.10
2022-11-16T12:52:58.330Z,19.86
2022-11-16T12:53:58.298Z,20.08
2022-11-16T12:55:24.640Z,19.80
2022-11-16T12:55:58.272Z,19.77
2022-11-16T13:08:58.774Z,15.47
2022-11-16T13:09:58.660Z,16.35
2022-11-16T13:10:58.660Z,17.14
2022-11-16T13:11:58.667Z,17.68
2022-11-16T13:13:21.890Z,18.33
2022-11-16T13:13:58.992Z,18.70
2022-11-16T13:28:03.364Z,15.68
2022-11-16T13:29:03.258Z,16.25
2022-11-16T13:30:03.229Z,16.73
2022-11-16T13:31:03.216Z,17.15
2022-11-16T13:32:03.205Z,17.25
2022-11-16T13:33:03.192Z,18.11
